sensor_id;sensor_type;location;lat;lon;timestamp;temperature;humidity
11666;DHT22;5889;51.350;6.708;2023-04-03T00:02:06;3.00;99.90
11666;DHT22;5889;51.350;6.708;2023-04-03T00:04:34;3.00;99.90
11666;DHT22;5889;51.350;6.708;2023-04-03T00:07:01;3.00;99.90
11666;DHT22;5889;51.350;6.708;2023-04-03T00:09:28;3.00;99.90
11666;DHT22;5889;51.350;6.708;2023-04-03T00:11:55;2.90;99.90
11666;DHT22;5889;51.350;6.708;2023-04-03T00:14:22;2.90;99.90
11666;DHT22;5889;51.350;6.708;2023-04-03T00:16:49;2.90;99.90
11666;DHT22;5889;51.350;6.708;2023-04-03T00:19:16;2.90;99.90
11666;DHT22;5889;51.350;6.708;2023-04-03T00:21:44;2.80;99.90
11666;DHT22;5889;51.350;6.708;2023-04-03T00:24:11;2.80;99.90
11666;DHT22;5889;51.350;6.708;2023-04-03T00:26:38;2.80;99.90
11666;DHT22;5889;51.350;6.708;2023-04-03T00:29:05;2.80;99.90
11666;DHT22;5889;51.350;6.708;2023-04-03T00:31:32;2.70;99.90
11666;DHT22;5889;51.350;6.708;2023-04-03T00:33:59;2.70;99.90
11666;DHT22;5889;51.350;6.708;2023-04-03T00:36:26;2.70;99.90
11666;DHT22;5889;51.350;6.708;2023-04-03T00:38:54;2.70;99.90
11666;DHT22;5889;51.350;6.708;2023-04-03T00:41:21;2.70;99.90
11666;DHT22;5889;51.350;6.708;2023-04-03T00:43:48;2.70;99.90
11666;DHT22;5889;51.350;6.708;2023-04-03T00:46:15;2.60;99.90
11666;DHT22;5889;51.350;6.708;2023-04-03T00:48:43;2.60;99.90
11666;DHT22;5889;51.350;6.708;2023-04-03T00:51:14;2.60;99.90
11666;DHT22;5889;51.350;6.708;2023-04-03T00:53:46;2.60;99.90
11666;DHT22;5889;51.350;6.708;2023-04-03T00:56:18;2.60;99.90
11666;DHT22;5889;51.350;6.708;2023-04-03T00:58:50;2.50;99.90
11666;DHT22;5889;51.350;6.708;2023-04-03T01:01:21;2.50;99.90
11666;DHT22;5889;51.350;6.708;2023-04-03T01:03:49;2.50;99.90
11666;DHT22;5889;51.350;6.708;2023-04-03T01:06:18;2.50;99.90
11666;DHT22;5889;51.350;6.708;2023-04-03T01:08:47;2.50;99.90
11666;DHT22;5889;51.350;6.708;2023-04-03T01:11:17;2.50;99.90
11666;DHT22;5889;51.350;6.708;2023-04-03T01:13:44;2.50;99.90
11666;DHT22;5889;51.350;6.708;2023-04-03T01:16:11;2.50;99.90
11666;DHT22;5889;51.350;6.708;2023-04-03T01:18:39;2.50;99.90
11666;DHT22;5889;51.350;6.708;2023-04-03T01:24:27;2.40;99.90
11666;DHT22;5889;51.350;6.708;2023-04-03T01:27:01;2.30;99.90
11666;DHT22;5889;51.350;6.708;2023-04-03T01:29:29;2.30;99.90
11666;DHT22;5889;51.350;6.708;2023-04-03T01:31:58;2.30;99.90
11666;DHT22;5889;51.350;6.708;2023-04-03T01:34:26;2.30;99.90
11666;DHT22;5889;51.350;6.708;2023-04-03T01:36:54;2.30;99.90
11666;DHT22;5889;51.350;6.708;2023-04-03T01:39:21;2.30;99.90
11666;DHT22;5889;51.350;6.708;2023-04-03T01:41:48;2.20;99.90
11666;DHT22;5889;51.350;6.708;2023-04-03T01:44:16;2.20;99.90
11666;DHT22;5889;51.350;6.708;2023-04-03T01:46:43;2.20;99.90
11666;DHT22;5889;51.350;6.708;2023-04-03T01:49:11;2.20;99.90
11666;DHT22;5889;51.350;6.708;2023-04-03T01:51:38;2.10;99.90
11666;DHT22;5889;51.350;6.708;2023-04-03T01:54:05;2.10;99.90
11666;DHT22;5889;51.350;6.708;2023-04-03T01:56:32;2.10;99.90
11666;DHT22;5889;51.350;6.708;2023-04-03T01:58:59;2.10;99.90
11666;DHT22;5889;51.350;6.708;2023-04-03T02:01:26;2.10;99.90
11666;DHT22;5889;51.350;6.708;2023-04-03T02:03:53;2.10;99.90
11666;DHT22;5889;51.350;6.708;2023-04-03T02:06:21;2.10;99.90
11666;DHT22;5889;51.350;6.708;2023-04-03T02:08:48;2.10;99.90
11666;DHT22;5889;51.350;6.708;2023-04-03T02:11:15;2.20;99.90
11666;DHT22;5889;51.350;6.708;2023-04-03T02:13:42;2.10;99.90
11666;DHT22;5889;51.350;6.708;2023-04-03T02:16:10;2.10;99.90
11666;DHT22;5889;51.350;6.708;2023-04-03T02:18:38;2.10;99.90
11666;DHT22;5889;51.350;6.708;2023-04-03T02:21:05;2.10;99.90
11666;DHT22;5889;51.350;6.708;2023-04-03T02:23:33;2.10;99.90
11666;DHT22;5889;51.350;6.708;2023-04-03T02:26:06;2.10;99.90
11666;DHT22;5889;51.350;6.708;2023-04-03T02:28:34;2.10;99.90
11666;DHT22;5889;51.350;6.708;2023-04-03T02:31:01;2.10;99.90
11666;DHT22;5889;51.350;6.708;2023-04-03T02:33:28;2.10;99.90
11666;DHT22;5889;51.350;6.708;2023-04-03T02:35:56;2.10;99.90
11666;DHT22;5889;51.350;6.708;2023-04-03T02:38:23;2.10;99.90
11666;DHT22;5889;51.350;6.708;2023-04-03T02:40:52;2.10;99.90
11666;DHT22;5889;51.350;6.708;2023-04-03T02:43:19;2.10;99.90
11666;DHT22;5889;51.350;6.708;2023-04-03T02:45:46;2.00;99.90
11666;DHT22;5889;51.350;6.708;2023-04-03T02:48:13;2.00;99.90
11666;DHT22;5889;51.350;6.708;2023-04-03T02:50:40;2.00;99.90
11666;DHT22;5889;51.350;6.708;2023-04-03T02:53:07;2.00;99.90
11666;DHT22;5889;51.350;6.708;2023-04-03T02:55:34;2.00;99.90
11666;DHT22;5889;51.350;6.708;2023-04-03T02:58:03;2.00;99.90
11666;DHT22;5889;51.350;6.708;2023-04-03T03:00:30;2.00;99.90
11666;DHT22;5889;51.350;6.708;2023-04-03T03:02:57;2.00;99.90
11666;DHT22;5889;51.350;6.708;2023-04-03T03:05:24;2.00;99.90
11666;DHT22;5889;51.350;6.708;2023-04-03T03:07:51;2.00;99.90
11666;DHT22;5889;51.350;6.708;2023-04-03T03:10:17;2.00;99.90
11666;DHT22;5889;51.350;6.708;2023-04-03T03:12:44;2.00;99.90
11666;DHT22;5889;51.350;6.708;2023-04-03T03:15:13;1.90;99.90
11666;DHT22;5889;51.350;6.708;2023-04-03T03:17:40;1.90;99.90
11666;DHT22;5889;51.350;6.708;2023-04-03T03:20:08;1.90;99.90
11666;DHT22;5889;51.350;6.708;2023-04-03T03:22:36;1.90;99.90
11666;DHT22;5889;51.350;6.708;2023-04-03T03:25:04;1.90;99.90
11666;DHT22;5889;51.350;6.708;2023-04-03T03:27:31;1.90;99.90
11666;DHT22;5889;51.350;6.708;2023-04-03T03:29:58;1.90;99.90
11666;DHT22;5889;51.350;6.708;2023-04-03T03:32:27;1.80;99.90
11666;DHT22;5889;51.350;6.708;2023-04-03T03:34:53;1.80;99.90
11666;DHT22;5889;51.350;6.708;2023-04-03T03:37:45;1.80;99.90
11666;DHT22;5889;51.350;6.708;2023-04-03T08:56:51;6.20;95.00
11666;DHT22;5889;51.350;6.708;2023-04-03T08:59:26;6.30;94.50
11666;DHT22;5889;51.350;6.708;2023-04-03T09:02:23;6.40;95.00
11666;DHT22;5889;51.350;6.708;2023-04-03T09:05:11;6.50;92.90
11666;DHT22;5889;51.350;6.708;2023-04-03T09:08:24;6.40;92.40
11666;DHT22;5889;51.350;6.708;2023-04-03T09:11:00;6.50;92.50
11666;DHT22;5889;51.350;6.708;2023-04-03T09:13:50;6.60;92.90
11666;DHT22;5889;51.350;6.708;2023-04-03T09:24:10;7.10;90.50
11666;DHT22;5889;51.350;6.708;2023-04-03T09:26:41;7.00;87.70
11666;DHT22;5889;51.350;6.708;2023-04-03T09:32:24;7.20;87.40
11666;DHT22;5889;51.350;6.708;2023-04-03T09:34:55;7.40;83.90
11666;DHT22;5889;51.350;6.708;2023-04-03T09:37:41;7.30;82.40
11666;DHT22;5889;51.350;6.708;2023-04-03T09:43:24;7.30;80.40
11666;DHT22;5889;51.350;6.708;2023-04-03T09:45:52;7.30;80.10
11666;DHT22;5889;51.350;6.708;2023-04-03T09:48:21;7.20;81.70
11666;DHT22;5889;51.350;6.708;2023-04-03T09:51:00;7.30;81.50
11666;DHT22;5889;51.350;6.708;2023-04-03T09:53:32;7.30;82.50
11666;DHT22;5889;51.350;6.708;2023-04-03T09:56:02;7.40;82.80
11666;DHT22;5889;51.350;6.708;2023-04-03T09:58:31;7.40;83.10
11666;DHT22;5889;51.350;6.708;2023-04-03T10:01:01;7.40;85.10
11666;DHT22;5889;51.350;6.708;2023-04-03T10:16:33;7.60;78.90
11666;DHT22;5889;51.350;6.708;2023-04-03T10:19:16;7.80;80.40
11666;DHT22;5889;51.350;6.708;2023-04-03T10:21:48;8.20;79.20
11666;DHT22;5889;51.350;6.708;2023-04-03T10:24:23;8.20;77.30
11666;DHT22;5889;51.350;6.708;2023-04-03T10:26:57;8.00;79.50
11666;DHT22;5889;51.350;6.708;2023-04-03T10:29:36;7.90;80.00
11666;DHT22;5889;51.350;6.708;2023-04-03T10:32:19;8.00;82.70
11666;DHT22;5889;51.350;6.708;2023-04-03T10:34:50;8.30;80.60
11666;DHT22;5889;51.350;6.708;2023-04-03T10:37:24;8.30;80.30
11666;DHT22;5889;51.350;6.708;2023-04-03T10:40:20;8.20;80.90
11666;DHT22;5889;51.350;6.708;2023-04-03T10:43:06;8.10;80.50
11666;DHT22;5889;51.350;6.708;2023-04-03T10:46:06;8.10;82.40
11666;DHT22;5889;51.350;6.708;2023-04-03T10:49:08;8.20;83.70
11666;DHT22;5889;51.350;6.708;2023-04-03T10:51:53;8.60;83.20
11666;DHT22;5889;51.350;6.708;2023-04-03T10:54:46;8.40;81.30
11666;DHT22;5889;51.350;6.708;2023-04-03T11:13:16;8.70;82.10
11666;DHT22;5889;51.350;6.708;2023-04-03T11:15:44;8.90;80.40
11666;DHT22;5889;51.350;6.708;2023-04-03T11:18:14;9.10;80.90
11666;DHT22;5889;51.350;6.708;2023-04-03T11:20:46;9.10;80.10
11666;DHT22;5889;51.350;6.708;2023-04-03T11:23:20;9.30;80.60
11666;DHT22;5889;51.350;6.708;2023-04-03T11:25:51;9.40;78.80
11666;DHT22;5889;51.350;6.708;2023-04-03T11:28:20;9.20;81.70
11666;DHT22;5889;51.350;6.708;2023-04-03T11:30:50;9.10;82.40
11666;DHT22;5889;51.350;6.708;2023-04-03T11:33:37;9.20;82.10
11666;DHT22;5889;51.350;6.708;2023-04-03T11:36:10;9.00;83.60
11666;DHT22;5889;51.350;6.708;2023-04-03T11:38:42;8.90;81.80
11666;DHT22;5889;51.350;6.708;2023-04-03T11:41:11;8.90;83.30
11666;DHT22;5889;51.350;6.708;2023-04-03T11:43:43;8.90;84.00
11666;DHT22;5889;51.350;6.708;2023-04-03T11:46:22;8.70;83.70
11666;DHT22;5889;51.350;6.708;2023-04-03T11:48:50;8.70;86.60
11666;DHT22;5889;51.350;6.708;2023-04-03T11:51:41;8.70;88.20
11666;DHT22;5889;51.350;6.708;2023-04-03T11:54:43;8.80;86.10
11666;DHT22;5889;51.350;6.708;2023-04-03T11:57:49;8.80;83.30
11666;DHT22;5889;51.350;6.708;2023-04-03T12:00:56;8.90;83.60
11666;DHT22;5889;51.350;6.708;2023-04-03T12:09:32;9.40;83.70
11666;DHT22;5889;51.350;6.708;2023-04-03T12:12:01;9.60;82.20
11666;DHT22;5889;51.350;6.708;2023-04-03T12:14:47;9.70;80.50
11666;DHT22;5889;51.350;6.708;2023-04-03T12:17:22;9.70;81.50
11666;DHT22;5889;51.350;6.708;2023-04-03T12:19:53;9.70;82.70
11666;DHT22;5889;51.350;6.708;2023-04-03T12:22:20;9.50;79.70
11666;DHT22;5889;51.350;6.708;2023-04-03T12:24:50;9.20;84.20
11666;DHT22;5889;51.350;6.708;2023-04-03T12:27:23;9.10;82.40
11666;DHT22;5889;51.350;6.708;2023-04-03T12:29:55;9.10;82.80
11666;DHT22;5889;51.350;6.708;2023-04-03T12:32:51;9.10;81.60
11666;DHT22;5889;51.350;6.708;2023-04-03T12:35:26;9.00;85.00
11666;DHT22;5889;51.350;6.708;2023-04-03T12:38:28;9.20;81.20
11666;DHT22;5889;51.350;6.708;2023-04-03T12:41:18;9.30;84.30
11666;DHT22;5889;51.350;6.708;2023-04-03T12:43:59;9.30;82.00
11666;DHT22;5889;51.350;6.708;2023-04-03T12:46:35;9.30;84.70
11666;DHT22;5889;51.350;6.708;2023-04-03T12:49:20;9.20;81.00
11666;DHT22;5889;51.350;6.708;2023-04-03T12:51:49;9.30;84.10
11666;DHT22;5889;51.350;6.708;2023-04-03T12:54:19;9.30;79.80
11666;DHT22;5889;51.350;6.708;2023-04-03T12:56:49;9.30;81.40
11666;DHT22;5889;51.350;6.708;2023-04-03T12:59:20;9.30;79.30
11666;DHT22;5889;51.350;6.708;2023-04-03T13:01:53;9.30;78.80
11666;DHT22;5889;51.350;6.708;2023-04-03T13:04:22;9.50;80.00
11666;DHT22;5889;51.350;6.708;2023-04-03T13:06:50;9.70;78.50
11666;DHT22;5889;51.350;6.708;2023-04-03T13:09:20;9.80;80.20
11666;DHT22;5889;51.350;6.708;2023-04-03T13:11:49;9.90;78.20
11666;DHT22;5889;51.350;6.708;2023-04-03T13:14:19;9.90;75.30
11666;DHT22;5889;51.350;6.708;2023-04-03T13:16:54;10.00;76.60
11666;DHT22;5889;51.350;6.708;2023-04-03T13:19:24;10.10;77.60
11666;DHT22;5889;51.350;6.708;2023-04-03T13:21:55;10.30;77.20
11666;DHT22;5889;51.350;6.708;2023-04-03T13:24:37;10.40;77.80
11666;DHT22;5889;51.350;6.708;2023-04-03T13:27:05;10.50;76.90
11666;DHT22;5889;51.350;6.708;2023-04-03T13:29:35;10.20;75.80
11666;DHT22;5889;51.350;6.708;2023-04-03T13:32:04;9.90;76.90
11666;DHT22;5889;51.350;6.708;2023-04-03T13:34:38;9.90;76.40
11666;DHT22;5889;51.350;6.708;2023-04-03T13:37:11;10.00;77.90
11666;DHT22;5889;51.350;6.708;2023-04-03T13:39:45;9.90;77.80
11666;DHT22;5889;51.350;6.708;2023-04-03T13:42:24;9.70;76.40
11666;DHT22;5889;51.350;6.708;2023-04-03T13:45:10;9.70;76.00
11666;DHT22;5889;51.350;6.708;2023-04-03T13:47:40;9.60;78.90
11666;DHT22;5889;51.350;6.708;2023-04-03T13:50:16;9.70;77.80
11666;DHT22;5889;51.350;6.708;2023-04-03T13:52:46;9.80;78.20
11666;DHT22;5889;51.350;6.708;2023-04-03T13:55:19;10.00;77.80
11666;DHT22;5889;51.350;6.708;2023-04-03T13:57:52;10.00;77.40
11666;DHT22;5889;51.350;6.708;2023-04-03T14:00:22;10.00;75.90
11666;DHT22;5889;51.350;6.708;2023-04-03T14:02:55;9.90;75.90
11666;DHT22;5889;51.350;6.708;2023-04-03T14:05:24;9.90;76.60
11666;DHT22;5889;51.350;6.708;2023-04-03T14:07:52;9.70;76.80
11666;DHT22;5889;51.350;6.708;2023-04-03T14:10:20;9.80;76.90
11666;DHT22;5889;51.350;6.708;2023-04-03T14:12:47;10.10;79.60
11666;DHT22;5889;51.350;6.708;2023-04-03T14:15:18;10.00;76.30
11666;DHT22;5889;51.350;6.708;2023-04-03T14:17:46;10.00;77.80
11666;DHT22;5889;51.350;6.708;2023-04-03T14:20:15;10.00;76.40
11666;DHT22;5889;51.350;6.708;2023-04-03T14:22:44;10.10;78.60
11666;DHT22;5889;51.350;6.708;2023-04-03T14:25:11;9.90;78.50
11666;DHT22;5889;51.350;6.708;2023-04-03T14:27:40;9.80;77.00
11666;DHT22;5889;51.350;6.708;2023-04-03T14:30:12;9.80;75.50
11666;DHT22;5889;51.350;6.708;2023-04-03T14:32:40;9.70;76.50
11666;DHT22;5889;51.350;6.708;2023-04-03T14:35:07;9.90;78.60
11666;DHT22;5889;51.350;6.708;2023-04-03T14:37:34;10.10;77.10
11666;DHT22;5889;51.350;6.708;2023-04-03T14:40:05;10.20;78.10
11666;DHT22;5889;51.350;6.708;2023-04-03T14:42:36;10.10;76.10
11666;DHT22;5889;51.350;6.708;2023-04-03T14:45:05;10.00;77.90
11666;DHT22;5889;51.350;6.708;2023-04-03T14:47:33;9.90;78.30
11666;DHT22;5889;51.350;6.708;2023-04-03T14:50:02;9.90;76.80
11666;DHT22;5889;51.350;6.708;2023-04-03T14:52:32;9.90;76.50
11666;DHT22;5889;51.350;6.708;2023-04-03T14:55:00;9.80;77.20
11666;DHT22;5889;51.350;6.708;2023-04-03T14:57:29;9.80;77.80
11666;DHT22;5889;51.350;6.708;2023-04-03T14:59:57;9.90;77.20
11666;DHT22;5889;51.350;6.708;2023-04-03T15:02:29;10.00;77.50
11666;DHT22;5889;51.350;6.708;2023-04-03T15:04:57;10.00;78.50
11666;DHT22;5889;51.350;6.708;2023-04-03T15:07:26;10.10;76.30
11666;DHT22;5889;51.350;6.708;2023-04-03T15:09:54;10.00;76.70
11666;DHT22;5889;51.350;6.708;2023-04-03T15:12:22;10.10;77.10
11666;DHT22;5889;51.350;6.708;2023-04-03T15:14:50;9.90;77.90
11666;DHT22;5889;51.350;6.708;2023-04-03T15:17:19;9.80;81.10
11666;DHT22;5889;51.350;6.708;2023-04-03T15:19:48;9.80;77.30
11666;DHT22;5889;51.350;6.708;2023-04-03T15:22:16;9.60;78.00
11666;DHT22;5889;51.350;6.708;2023-04-03T15:24:43;9.40;79.20
11666;DHT22;5889;51.350;6.708;2023-04-03T15:27:11;9.50;78.30
11666;DHT22;5889;51.350;6.708;2023-04-03T15:29:40;9.50;78.10
11666;DHT22;5889;51.350;6.708;2023-04-03T15:32:09;9.60;77.20
11666;DHT22;5889;51.350;6.708;2023-04-03T15:34:36;9.70;78.60
11666;DHT22;5889;51.350;6.708;2023-04-03T15:37:04;9.70;77.50
11666;DHT22;5889;51.350;6.708;2023-04-03T15:39:31;9.60;77.70
11666;DHT22;5889;51.350;6.708;2023-04-03T15:41:58;9.70;77.40
11666;DHT22;5889;51.350;6.708;2023-04-03T15:44:32;9.90;77.60
11666;DHT22;5889;51.350;6.708;2023-04-03T15:46:59;10.00;76.20
11666;DHT22;5889;51.350;6.708;2023-04-03T15:49:28;9.80;75.30
11666;DHT22;5889;51.350;6.708;2023-04-03T15:51:56;9.60;76.90
11666;DHT22;5889;51.350;6.708;2023-04-03T15:54:23;9.50;77.80
11666;DHT22;5889;51.350;6.708;2023-04-03T15:56:51;9.50;78.40
11666;DHT22;5889;51.350;6.708;2023-04-03T15:59:18;9.50;76.80
11666;DHT22;5889;51.350;6.708;2023-04-03T16:01:45;9.50;77.00
11666;DHT22;5889;51.350;6.708;2023-04-03T16:04:12;9.60;76.70
11666;DHT22;5889;51.350;6.708;2023-04-03T16:06:41;9.60;76.40
11666;DHT22;5889;51.350;6.708;2023-04-03T16:09:08;9.70;77.60
11666;DHT22;5889;51.350;6.708;2023-04-03T16:11:36;9.60;77.80
11666;DHT22;5889;51.350;6.708;2023-04-03T16:14:05;9.40;78.20
11666;DHT22;5889;51.350;6.708;2023-04-03T16:16:32;9.40;78.70
11666;DHT22;5889;51.350;6.708;2023-04-03T16:18:59;9.30;79.50
11666;DHT22;5889;51.350;6.708;2023-04-03T16:21:27;9.40;79.20
11666;DHT22;5889;51.350;6.708;2023-04-03T16:23:57;9.50;78.80
11666;DHT22;5889;51.350;6.708;2023-04-03T16:26:25;9.60;78.30
11666;DHT22;5889;51.350;6.708;2023-04-03T16:28:55;9.70;77.60
11666;DHT22;5889;51.350;6.708;2023-04-03T16:31:25;9.70;79.20
11666;DHT22;5889;51.350;6.708;2023-04-03T16:33:52;9.70;77.30
11666;DHT22;5889;51.350;6.708;2023-04-03T16:36:21;9.70;77.70
11666;DHT22;5889;51.350;6.708;2023-04-03T16:38:49;9.60;77.20
11666;DHT22;5889;51.350;6.708;2023-04-03T16:41:18;9.50;77.80
11666;DHT22;5889;51.350;6.708;2023-04-03T16:43:45;9.40;77.30
11666;DHT22;5889;51.350;6.708;2023-04-03T16:46:38;9.30;76.80
11666;DHT22;5889;51.350;6.708;2023-04-03T16:49:21;9.30;77.60
11666;DHT22;5889;51.350;6.708;2023-04-03T16:51:48;9.30;77.40
11666;DHT22;5889;51.350;6.708;2023-04-03T16:54:15;9.40;77.70
11666;DHT22;5889;51.350;6.708;2023-04-03T16:56:44;9.50;77.30
11666;DHT22;5889;51.350;6.708;2023-04-03T16:59:11;9.60;77.00
11666;DHT22;5889;51.350;6.708;2023-04-03T17:01:38;9.50;77.40
11666;DHT22;5889;51.350;6.708;2023-04-03T17:04:06;9.30;79.60
11666;DHT22;5889;51.350;6.708;2023-04-03T17:06:33;9.30;78.00
11666;DHT22;5889;51.350;6.708;2023-04-03T17:09:00;9.20;78.60
11666;DHT22;5889;51.350;6.708;2023-04-03T17:11:27;9.10;78.30
11666;DHT22;5889;51.350;6.708;2023-04-03T17:13:56;9.00;78.70
11666;DHT22;5889;51.350;6.708;2023-04-03T17:16:24;8.90;79.00
11666;DHT22;5889;51.350;6.708;2023-04-03T17:18:52;8.90;79.30
11666;DHT22;5889;51.350;6.708;2023-04-03T17:21:21;9.00;79.20
11666;DHT22;5889;51.350;6.708;2023-04-03T17:23:51;9.30;79.00
11666;DHT22;5889;51.350;6.708;2023-04-03T17:26:32;9.30;77.80
11666;DHT22;5889;51.350;6.708;2023-04-03T17:29:01;9.30;77.50
11666;DHT22;5889;51.350;6.708;2023-04-03T17:39:33;10.00;77.90
11666;DHT22;5889;51.350;6.708;2023-04-03T17:45:12;10.50;76.70
11666;DHT22;5889;51.350;6.708;2023-04-03T17:48:03;10.70;75.60
11666;DHT22;5889;51.350;6.708;2023-04-03T17:50:39;10.50;75.50
11666;DHT22;5889;51.350;6.708;2023-04-03T17:53:06;10.10;76.10
11666;DHT22;5889;51.350;6.708;2023-04-03T17:55:36;9.90;77.30
11666;DHT22;5889;51.350;6.708;2023-04-03T17:58:04;10.00;76.90
11666;DHT22;5889;51.350;6.708;2023-04-03T18:00:32;9.80;77.10
11666;DHT22;5889;51.350;6.708;2023-04-03T18:02:59;9.30;77.70
11666;DHT22;5889;51.350;6.708;2023-04-03T18:05:28;8.70;78.30
11666;DHT22;5889;51.350;6.708;2023-04-03T18:07:57;8.30;79.80
11666;DHT22;5889;51.350;6.708;2023-04-03T18:10:25;8.10;82.30
11666;DHT22;5889;51.350;6.708;2023-04-03T18:12:53;7.80;81.50
11666;DHT22;5889;51.350;6.708;2023-04-03T18:15:20;7.70;81.70
11666;DHT22;5889;51.350;6.708;2023-04-03T18:17:50;7.70;82.30
11666;DHT22;5889;51.350;6.708;2023-04-03T18:20:21;7.60;82.50
11666;DHT22;5889;51.350;6.708;2023-04-03T18:22:49;7.60;82.90
11666;DHT22;5889;51.350;6.708;2023-04-03T18:25:17;7.50;83.00
11666;DHT22;5889;51.350;6.708;2023-04-03T18:27:47;7.50;82.90
11666;DHT22;5889;51.350;6.708;2023-04-03T18:30:16;7.40;82.80
11666;DHT22;5889;51.350;6.708;2023-04-03T18:32:43;7.30;82.90
11666;DHT22;5889;51.350;6.708;2023-04-03T18:35:12;7.30;83.50
11666;DHT22;5889;51.350;6.708;2023-04-03T18:37:39;7.20;83.70
11666;DHT22;5889;51.350;6.708;2023-04-03T18:40:08;7.20;84.20
11666;DHT22;5889;51.350;6.708;2023-04-03T18:42:35;7.20;84.20
11666;DHT22;5889;51.350;6.708;2023-04-03T18:45:04;7.10;84.40
11666;DHT22;5889;51.350;6.708;2023-04-03T18:47:32;7.10;84.40
11666;DHT22;5889;51.350;6.708;2023-04-03T18:49:59;7.00;84.60
11666;DHT22;5889;51.350;6.708;2023-04-03T18:52:27;7.00;85.20
11666;DHT22;5889;51.350;6.708;2023-04-03T18:55:01;7.00;85.40
11666;DHT22;5889;51.350;6.708;2023-04-03T19:00:53;6.80;85.50
11666;DHT22;5889;51.350;6.708;2023-04-03T19:03:20;6.80;86.00
11666;DHT22;5889;51.350;6.708;2023-04-03T19:05:48;6.80;86.30
11666;DHT22;5889;51.350;6.708;2023-04-03T19:08:16;6.70;85.90
11666;DHT22;5889;51.350;6.708;2023-04-03T19:10:43;6.70;86.00
11666;DHT22;5889;51.350;6.708;2023-04-03T19:13:11;6.60;86.10
11666;DHT22;5889;51.350;6.708;2023-04-03T19:15:38;6.60;86.60
11666;DHT22;5889;51.350;6.708;2023-04-03T19:18:05;6.60;87.10
11666;DHT22;5889;51.350;6.708;2023-04-03T19:20:32;6.60;87.00
11666;DHT22;5889;51.350;6.708;2023-04-03T19:23:00;6.50;87.30
11666;DHT22;5889;51.350;6.708;2023-04-03T19:25:30;6.40;87.20
11666;DHT22;5889;51.350;6.708;2023-04-03T19:27:58;6.30;87.40
11666;DHT22;5889;51.350;6.708;2023-04-03T19:30:27;6.40;87.90
11666;DHT22;5889;51.350;6.708;2023-04-03T19:32:56;6.40;88.20
11666;DHT22;5889;51.350;6.708;2023-04-03T19:35:25;6.30;88.10
11666;DHT22;5889;51.350;6.708;2023-04-03T19:37:56;6.30;88.50
11666;DHT22;5889;51.350;6.708;2023-04-03T19:40:25;6.30;88.50
11666;DHT22;5889;51.350;6.708;2023-04-03T19:42:58;6.30;88.70
11666;DHT22;5889;51.350;6.708;2023-04-03T19:45:26;6.20;89.20
11666;DHT22;5889;51.350;6.708;2023-04-03T19:47:54;6.20;88.90
11666;DHT22;5889;51.350;6.708;2023-04-03T19:50:26;6.20;89.20
11666;DHT22;5889;51.350;6.708;2023-04-03T19:52:58;6.10;89.40
11666;DHT22;5889;51.350;6.708;2023-04-03T19:55:29;6.10;89.50
11666;DHT22;5889;51.350;6.708;2023-04-03T19:58:01;6.10;89.70
11666;DHT22;5889;51.350;6.708;2023-04-03T20:00:30;6.10;89.90
11666;DHT22;5889;51.350;6.708;2023-04-03T20:02:58;6.00;90.00
11666;DHT22;5889;51.350;6.708;2023-04-03T20:05:27;6.00;90.10
11666;DHT22;5889;51.350;6.708;2023-04-03T20:49:22;5.40;91.80
11666;DHT22;5889;51.350;6.708;2023-04-03T20:54:28;5.30;92.00
11666;DHT22;5889;51.350;6.708;2023-04-03T20:57:11;5.30;92.10
11666;DHT22;5889;51.350;6.708;2023-04-03T21:00:02;5.20;92.10
11666;DHT22;5889;51.350;6.708;2023-04-03T21:02:42;5.20;92.20
11666;DHT22;5889;51.350;6.708;2023-04-03T21:05:29;5.20;92.30
